Impacts METAR Board
IDs:

KCVG - Cincinnati Intl, KY, US

Updated at: 0900 UTC 25 May 2020
Potential Impact None Slight Moderate High
Time 24/21Z 24/22Z 24/23Z 25/00Z 25/01Z 25/02Z 25/03Z 25/04Z 25/05Z 25/06Z 25/07Z 25/08Z 25/09Z
Temp73 74 73 70 69 69 68 68 68 66 67 67 66
Dewpt60 64 61 63 64 64 62 63 64 63 63 62 62
Altim30.02 30.01 29.99 30.03 30.03 29.99 30.01 30.03 30.03 30.03 30.02 30.01 30.01
VIS10 10 10 10 7 10 10 10 10 10 10 10 10
CIG36 95 90 110 110 140 120 130 120 120 120 130 130
CoverBKNBKNBKNOVCOVCOVCOVCOVCOVCBKNBKNBKNBKN
FltCatVFRVFRVFRVFRVFRVFRVFRVFRVFRVFRVFRVFRVFR
WXTS----VCTS -RA-RA-RA--------------
WDir1401501502101701602103200110100100100
WSpd19 15 9 12 11 12 4 3 0 4 5 4 6
WGst29 -- -- -- -- -- -- -- -- -- -- -- --
Raw hourly METARs
KCVG 242104Z 14019G29KT 10SM TS BKN036CB BKN050 BKN120 23/16 A3002 RMK AO2 PK WND 13029/2102 LTG DSNT ALQDS RAE2056 FREQ LTGCCCG E CB E MOV NE P0000 T02280156 $
KCVG 242204Z 15015KT 10SM FEW037 SCT070 BKN095 23/18 A3001 RMK AO2 LTG DSNT E-SW RAE04 TSE04 TS MOV E CB DSNT E-S P0000 T02330178
KCVG 242252Z 15009KT 10SM FEW070 BKN090 BKN150 23/16 A2999 RMK AO2 LTG DSNT S-W RAE04 TSE04 SLP147 TS MOV E CB DSNT SW P0000 T02280161
KCVG 250004Z 21012KT 10SM VCTS -RA OVC110 21/17 A3003 RMK AO2 LTG DSNT SE-SW RAB2354 TSE2358 P0000 T02110172
KCVG 250052Z 17011KT 7SM -RA OVC110 21/18 A3003 RMK AO2 RAB2354 TSE2358B10E39 SLP159 TS MOV E P0004 T02060178
KCVG 250152Z 16012KT 10SM -RA OVC140 21/18 A2999 RMK AO2 SLP147 P0006 T02060178
KCVG 250252Z 21004KT 10SM BKN120 OVC160 20/17 A3001 RMK AO2 RAE09 SLP151 P0000 60010 T02000167 55007
KCVG 250352Z 32003KT 10SM OVC130 20/17 A3003 RMK AO2 SLP159 T02000172
KCVG 250452Z 00000KT 10SM OVC120 20/18 A3003 RMK AO2 SLP161 T02000178 403060178
KCVG 250552Z 11004KT 10SM BKN120 19/17 A3003 RMK AO2 SLP159 60010 T01890172 10211 20189 50008
KCVG 250652Z 10005KT 10SM BKN120 19/17 A3002 RMK AO2 SLP153 T01940172
KCVG 250752Z 10004KT 10SM FEW120 BKN130 19/17 A3001 RMK AO2 SLP150 T01940167
KCVG 250852Z 10006KT 10SM BKN130 19/17 A3001 RMK AO2 SLP151 T01890167 55008



Page loaded:  09:23 UTC  |   02:23 AM Pacific  |   03:23 AM Mountain  |   04:23 AM Central  |   05:23 AM Eastern

 

ADVISORIES

FORECASTS

FORECASTS

OBSERVATIONS

USER TOOLS

ABOUT US